createdAt,value
2023-03-21T00:00:51.228Z,6.15
2023-03-21T00:03:19.815Z,6.13
2023-03-21T00:05:53.877Z,6.11
2023-03-21T00:08:26.193Z,6.07
2023-03-21T00:11:02.565Z,6.06
2023-03-21T00:13:33.657Z,6.06
2023-03-21T00:16:13.432Z,6.04
2023-03-21T00:18:54.863Z,6.03
2023-03-21T00:24:16.953Z,5.98
2023-03-21T00:26:46.378Z,5.95
2023-03-21T00:29:15.521Z,5.95
2023-03-21T00:31:44.259Z,5.95
2023-03-21T00:36:46.357Z,5.94
2023-03-21T00:39:15.468Z,5.92
2023-03-21T00:41:45.296Z,5.90
2023-03-21T00:44:16.084Z,5.89
2023-03-21T00:47:04.229Z,5.87
2023-03-21T00:49:42.748Z,5.87
2023-03-21T00:52:18.634Z,5.86
2023-03-21T00:54:53.216Z,5.86
2023-03-21T00:57:29.328Z,5.87
2023-03-21T01:00:08.059Z,5.88
2023-03-21T01:03:02.789Z,5.88
2023-03-21T01:06:13.780Z,5.87
2023-03-21T01:09:02.960Z,5.91
2023-03-21T01:11:31.679Z,5.89
2023-03-21T01:14:14.608Z,5.89
2023-03-21T01:16:47.863Z,5.87
2023-03-21T01:19:25.089Z,5.85
2023-03-21T01:21:57.232Z,5.84
2023-03-21T01:24:29.458Z,5.81
2023-03-21T01:26:58.856Z,5.79
2023-03-21T01:29:27.436Z,5.80
2023-03-21T01:31:56.162Z,5.80
2023-03-21T01:34:24.706Z,5.79
2023-03-21T01:37:13.052Z,5.77
2023-03-21T01:39:47.314Z,5.77
2023-03-21T01:42:16.161Z,5.77
2023-03-21T01:44:56.987Z,5.75
2023-03-21T01:47:26.534Z,5.73
2023-03-21T01:50:18.055Z,5.73
2023-03-21T01:53:20.330Z,5.72
2023-03-21T01:55:50.041Z,5.71
2023-03-21T01:58:42.178Z,5.70
2023-03-21T02:01:28.282Z,5.67
2023-03-21T02:03:57.259Z,5.65
2023-03-21T02:06:50.823Z,5.65
2023-03-21T02:09:42.547Z,5.64
2023-03-21T02:12:16.660Z,5.63
2023-03-21T02:14:46.175Z,5.61
2023-03-21T02:17:34.585Z,5.60
2023-03-21T02:20:26.752Z,5.60
2023-03-21T02:23:14.076Z,5.60
2023-03-21T02:25:57.942Z,5.61
2023-03-21T02:28:36.224Z,5.63
2023-03-21T02:31:14.739Z,5.63
2023-03-21T02:34:10.825Z,5.65
2023-03-21T02:37:07.106Z,5.68
2023-03-21T02:40:11.339Z,5.68
2023-03-21T02:42:51.699Z,5.69
2023-03-21T02:45:30.838Z,5.69
2023-03-21T02:48:04.889Z,5.68
2023-03-21T02:50:44.150Z,5.69
2023-03-21T02:53:15.189Z,5.73
2023-03-21T02:55:44.239Z,5.75
2023-03-21T02:58:17.619Z,5.76
2023-03-21T03:00:50.364Z,5.77
2023-03-21T03:03:34.437Z,5.80
2023-03-21T03:06:24.809Z,5.82
2023-03-21T03:09:02.832Z,5.85
2023-03-21T03:11:35.889Z,5.90
2023-03-21T03:14:46.872Z,5.97
2023-03-21T03:17:23.884Z,6.07
2023-03-21T03:20:16.995Z,6.08
2023-03-21T03:22:58.200Z,6.05
2023-03-21T03:25:55.757Z,6.02
2023-03-21T03:28:30.293Z,5.97
2023-03-21T03:31:08.731Z,5.94
2023-03-21T03:33:45.084Z,5.94
2023-03-21T03:36:30.379Z,5.95
2023-03-21T03:39:07.434Z,5.97
2023-03-21T03:42:06.037Z,6.00
2023-03-21T03:44:34.382Z,6.04
2023-03-21T03:47:17.495Z,6.08
2023-03-21T03:50:10.701Z,6.15
2023-03-21T03:53:19.519Z,6.23
2023-03-21T03:55:55.039Z,6.30
2023-03-21T03:58:29.181Z,6.32
2023-03-21T04:01:05.875Z,6.34
2023-03-21T04:03:48.907Z,6.37
2023-03-21T04:06:19.269Z,6.40
2023-03-21T04:08:51.436Z,6.43
2023-03-21T04:11:20.113Z,6.47
2023-03-21T04:13:52.294Z,6.48
2023-03-21T04:16:26.146Z,6.48
2023-03-21T04:18:55.943Z,6.52
2023-03-21T04:21:25.954Z,6.57
2023-03-21T04:24:01.468Z,6.63
2023-03-21T04:26:33.484Z,6.67
2023-03-21T04:29:24.864Z,6.67
2023-03-21T04:32:17.928Z,6.62
2023-03-21T04:34:54.572Z,6.58
2023-03-21T04:37:24.000Z,6.56
2023-03-21T04:39:53.229Z,6.56
2023-03-21T04:42:22.907Z,6.58
2023-03-21T04:44:51.954Z,6.61
2023-03-21T04:47:20.599Z,6.63
2023-03-21T04:49:54.081Z,6.65
2023-03-21T04:52:24.934Z,6.66
2023-03-21T04:54:54.109Z,6.67
2023-03-21T04:57:24.442Z,6.69
2023-03-21T04:59:53.038Z,6.69
2023-03-21T05:02:29.032Z,6.69
2023-03-21T05:04:57.661Z,6.67
2023-03-21T05:07:26.559Z,6.65
2023-03-21T05:09:54.932Z,6.67
2023-03-21T05:12:24.102Z,6.73
2023-03-21T05:14:53.359Z,6.78
2023-03-21T05:17:28.699Z,6.86
2023-03-21T05:19:58.555Z,6.93
2023-03-21T05:22:29.273Z,6.97
2023-03-21T05:24:59.845Z,7.04
2023-03-21T05:27:54.446Z,7.10
2023-03-21T05:30:25.869Z,7.14
2023-03-21T05:32:58.769Z,7.17
2023-03-21T05:35:27.299Z,7.19
2023-03-21T05:38:01.154Z,7.19
2023-03-21T05:40:33.209Z,7.21
2023-03-21T05:43:02.256Z,7.24
2023-03-21T05:45:32.702Z,7.28
2023-03-21T05:48:05.978Z,7.34
2023-03-21T05:50:39.274Z,7.41
2023-03-21T05:53:14.768Z,7.44
2023-03-21T05:55:46.157Z,7.47
2023-03-21T06:03:12.424Z,7.50
2023-03-21T10:29:43.418Z,13.58
2023-03-21T13:05:36.127Z,12.83
2023-03-21T13:08:21.266Z,12.76
2023-03-21T13:10:51.163Z,12.73
2023-03-21T13:14:21.883Z,12.70
2023-03-21T13:16:56.374Z,12.70
2023-03-21T13:19:47.645Z,12.71
2023-03-21T13:22:22.951Z,12.72
2023-03-21T13:25:22.469Z,12.70
2023-03-21T13:27:55.564Z,12.67
2023-03-21T13:30:29.122Z,12.63
2023-03-21T13:33:13.164Z,12.60
2023-03-21T13:35:43.218Z,12.57
2023-03-21T13:38:36.584Z,12.54
2023-03-21T13:41:16.133Z,12.50
2023-03-21T13:44:03.357Z,12.47
2023-03-21T13:46:50.523Z,12.43
2023-03-21T13:49:32.740Z,12.38
2023-03-21T13:52:12.083Z,12.33
2023-03-21T13:54:57.049Z,12.30
2023-03-21T13:57:30.695Z,12.26
2023-03-21T14:00:37.224Z,12.19
2023-03-21T14:03:12.479Z,12.07
2023-03-21T14:06:01.124Z,11.94
2023-03-21T14:08:37.413Z,11.82
2023-03-21T14:11:08.703Z,11.71
2023-03-21T14:13:50.990Z,11.61
2023-03-21T14:16:21.435Z,11.52
2023-03-21T14:18:55.057Z,11.48
2023-03-21T14:21:28.466Z,11.45
2023-03-21T14:24:11.579Z,11.42
2023-03-21T14:26:59.531Z,11.39
2023-03-21T14:29:33.649Z,11.36
2023-03-21T14:32:02.249Z,11.32
2023-03-21T14:34:34.293Z,11.29
2023-03-21T14:37:03.944Z,11.30
2023-03-21T14:39:33.418Z,11.28
2023-03-21T14:42:06.305Z,11.25
2023-03-21T14:44:58.108Z,11.25
2023-03-21T14:47:28.261Z,11.25
2023-03-21T14:49:57.062Z,11.24
2023-03-21T14:52:27.822Z,11.21
2023-03-21T14:54:56.516Z,11.17
2023-03-21T14:57:27.867Z,11.13
2023-03-21T14:59:58.460Z,11.09
2023-03-21T15:02:32.627Z,11.07
2023-03-21T15:05:22.468Z,11.04
2023-03-21T15:08:22.206Z,11.04
2023-03-21T15:11:08.099Z,11.03
2023-03-21T15:13:50.393Z,11.00
2023-03-21T15:16:19.120Z,10.99
2023-03-21T15:18:47.823Z,11.00
2023-03-21T15:21:48.171Z,11.00
2023-03-21T15:24:26.704Z,10.97
2023-03-21T15:27:03.947Z,10.96
2023-03-21T15:29:33.798Z,10.89
2023-03-21T15:32:05.048Z,10.77
2023-03-21T15:34:33.648Z,10.68
2023-03-21T15:37:12.731Z,10.60
2023-03-21T15:39:46.299Z,10.51
2023-03-21T15:42:34.342Z,10.40
2023-03-21T15:45:20.086Z,10.30
2023-03-21T15:47:59.418Z,10.21
2023-03-21T15:50:39.215Z,10.15
2023-03-21T15:53:19.129Z,10.12
2023-03-21T15:55:52.709Z,10.10
2023-03-21T15:58:27.670Z,10.12
2023-03-21T16:01:02.251Z,10.15
2023-03-21T16:03:37.565Z,10.18
2023-03-21T16:06:17.131Z,10.19
2023-03-21T16:08:47.844Z,10.19
2023-03-21T16:11:18.611Z,10.18
2023-03-21T16:13:50.177Z,10.16
2023-03-21T16:16:28.638Z,10.12
2023-03-21T16:19:02.087Z,10.07
2023-03-21T16:21:34.801Z,10.02
2023-03-21T16:24:03.380Z,9.99
2023-03-21T16:26:33.428Z,9.96
2023-03-21T16:29:01.739Z,9.94
2023-03-21T16:31:32.708Z,9.97
2023-03-21T16:34:02.490Z,10.02
2023-03-21T16:36:38.697Z,10.04
2023-03-21T16:39:27.116Z,10.05
2023-03-21T16:41:56.331Z,10.06
2023-03-21T16:44:24.796Z,10.08
2023-03-21T16:46:53.349Z,10.10
2023-03-21T16:49:26.992Z,10.12
2023-03-21T16:51:59.447Z,10.13
2023-03-21T16:54:32.360Z,10.15
2023-03-21T16:57:00.599Z,10.13
2023-03-21T16:59:29.273Z,10.07
2023-03-21T17:01:57.817Z,10.03
2023-03-21T17:04:26.958Z,10.03
2023-03-21T17:06:55.513Z,10.05
2023-03-21T17:09:26.527Z,10.07
2023-03-21T17:12:00.318Z,10.07
2023-03-21T17:14:31.436Z,10.07
2023-03-21T17:16:59.928Z,10.04
2023-03-21T17:19:28.444Z,10.04
2023-03-21T17:21:56.808Z,10.03
2023-03-21T17:24:29.341Z,10.02
2023-03-21T17:27:01.641Z,10.03
2023-03-21T17:29:30.125Z,10.03
2023-03-21T17:31:59.391Z,10.02
2023-03-21T17:34:27.628Z,10.01
2023-03-21T17:37:02.593Z,10.01
2023-03-21T17:39:32.712Z,10.02
2023-03-21T17:42:01.299Z,10.01
2023-03-21T17:44:32.542Z,9.99
2023-03-21T17:47:01.747Z,9.98
2023-03-21T17:49:32.490Z,9.97
2023-03-21T17:52:00.887Z,9.96
2023-03-21T17:54:29.457Z,9.94
2023-03-21T17:56:57.873Z,9.91
2023-03-21T17:59:26.606Z,9.88
2023-03-21T18:01:55.750Z,9.86
2023-03-21T18:04:25.341Z,9.85
2023-03-21T18:06:57.367Z,9.84
2023-03-21T18:09:27.700Z,9.83
2023-03-21T18:11:56.273Z,9.83
2023-03-21T18:14:28.467Z,9.83
2023-03-21T18:16:57.587Z,9.81
2023-03-21T18:19:27.078Z,9.81
2023-03-21T18:21:56.280Z,9.80
2023-03-21T18:24:24.789Z,9.80
2023-03-21T18:26:53.216Z,9.79
2023-03-21T18:32:11.592Z,9.75
2023-03-21T18:34:39.993Z,9.72
2023-03-21T18:37:10.024Z,9.69
2023-03-21T18:39:39.943Z,9.66
2023-03-21T18:42:16.794Z,9.66
2023-03-21T18:44:48.210Z,9.68
2023-03-21T18:47:16.934Z,9.70
2023-03-21T18:50:12.568Z,9.71
2023-03-21T18:52:38.934Z,9.71
2023-03-21T18:55:09.063Z,9.70
2023-03-21T18:57:38.858Z,9.68
2023-03-21T19:00:13.938Z,9.67
2023-03-21T19:02:47.133Z,9.66
2023-03-21T19:05:26.180Z,9.67
2023-03-21T19:14:29.768Z,9.69
2023-03-21T19:17:47.558Z,9.64
2023-03-21T19:19:49.587Z,9.62
2023-03-21T19:22:18.244Z,9.61
2023-03-21T19:24:47.165Z,9.60
2023-03-21T19:27:16.355Z,9.60
2023-03-21T19:30:03.002Z,9.58
2023-03-21T19:32:36.148Z,9.57
2023-03-21T19:35:05.162Z,9.56
2023-03-21T19:37:36.185Z,9.54
2023-03-21T19:40:06.017Z,9.51
2023-03-21T19:42:36.479Z,9.49
2023-03-21T19:45:10.033Z,9.44
2023-03-21T19:47:39.601Z,9.41
2023-03-21T19:50:47.719Z,9.37
2023-03-21T19:53:00.954Z,9.34
2023-03-21T19:55:29.617Z,9.30
2023-03-21T19:58:00.558Z,9.23
2023-03-21T20:00:30.484Z,9.16
2023-03-21T20:02:59.850Z,9.07
2023-03-21T20:05:28.966Z,9.02
2023-03-21T20:07:57.662Z,8.97
2023-03-21T20:10:27.901Z,8.97
2023-03-21T20:13:00.039Z,8.97
2023-03-21T20:15:30.566Z,8.97
2023-03-21T20:18:04.377Z,8.97
2023-03-21T20:20:33.784Z,8.98
2023-03-21T20:23:08.142Z,8.99
2023-03-21T20:25:41.433Z,8.99
2023-03-21T20:28:20.063Z,9.01
2023-03-21T20:30:57.281Z,9.02
2023-03-21T20:33:26.790Z,9.04
2023-03-21T20:36:37.363Z,9.06
2023-03-21T20:38:56.016Z,9.07
2023-03-21T20:41:24.400Z,9.08
2023-03-21T20:46:56.933Z,9.12
2023-03-21T20:49:28.484Z,9.19
2023-03-21T20:54:47.626Z,9.23
2023-03-21T20:57:18.629Z,9.21
2023-03-21T20:59:47.968Z,9.17
2023-03-21T21:02:17.225Z,9.10
2023-03-21T21:05:15.676Z,9.03
2023-03-21T21:07:36.351Z,9.02
2023-03-21T21:10:10.171Z,8.99
2023-03-21T21:12:39.581Z,8.96
2023-03-21T21:15:08.690Z,8.92
2023-03-21T21:20:25.765Z,8.85
2023-03-21T21:23:00.184Z,8.86
2023-03-21T21:25:32.367Z,8.88
2023-03-21T21:28:02.299Z,8.92
2023-03-21T21:30:38.271Z,8.94
2023-03-21T21:33:07.230Z,8.95
2023-03-21T21:35:36.043Z,8.96
2023-03-21T21:38:04.915Z,8.99
2023-03-21T21:40:36.549Z,8.98
2023-03-21T21:43:13.076Z,8.93
2023-03-21T21:45:42.312Z,8.89
2023-03-21T21:48:11.958Z,8.89
2023-03-21T21:50:41.811Z,8.88
2023-03-21T21:53:13.380Z,8.89
2023-03-21T21:55:42.191Z,8.90
2023-03-21T21:58:13.645Z,8.90
2023-03-21T22:00:43.025Z,8.91
2023-03-21T22:03:12.584Z,8.93
2023-03-21T22:05:41.313Z,8.95
2023-03-21T22:08:12.537Z,8.95
2023-03-21T22:10:41.408Z,8.96
2023-03-21T22:13:09.849Z,8.98
2023-03-21T22:15:42.225Z,8.98
2023-03-21T22:18:11.416Z,8.99
2023-03-21T22:20:40.054Z,8.99
2023-03-21T22:23:08.892Z,8.98
2023-03-21T22:25:38.887Z,8.97
2023-03-21T22:28:07.774Z,8.96
2023-03-21T22:30:38.068Z,8.94
2023-03-21T22:33:09.889Z,8.90
2023-03-21T22:35:43.047Z,8.89
2023-03-21T22:38:14.375Z,8.88
2023-03-21T22:40:42.661Z,8.91
2023-03-21T22:43:14.633Z,8.95
2023-03-21T22:45:46.756Z,8.95
2023-03-21T22:55:12.756Z,9.01
2023-03-21T22:57:41.492Z,9.00
2023-03-21T23:00:16.231Z,8.98
2023-03-21T23:02:44.793Z,8.95
2023-03-21T23:05:13.810Z,8.94
2023-03-21T23:07:44.821Z,8.93
2023-03-21T23:10:13.527Z,8.91
2023-03-21T23:12:41.978Z,8.91
2023-03-21T23:15:17.923Z,8.90
2023-03-21T23:17:46.724Z,8.92
2023-03-21T23:20:15.107Z,8.93
2023-03-21T23:22:46.338Z,8.92
2023-03-21T23:25:14.731Z,8.91
2023-03-21T23:27:43.817Z,8.93
2023-03-21T23:30:12.404Z,8.93
2023-03-21T23:32:41.099Z,8.94
2023-03-21T23:35:13.361Z,8.95
2023-03-21T23:37:52.520Z,8.94
2023-03-21T23:40:21.435Z,8.94
2023-03-21T23:42:49.792Z,8.91
2023-03-21T23:45:18.234Z,8.91
2023-03-21T23:47:51.088Z,8.91
2023-03-21T23:50:19.367Z,8.93
2023-03-21T23:52:50.266Z,8.94
2023-03-21T23:55:18.940Z,8.92
2023-03-21T23:57:47.399Z,8.88
